Airfield :
LOGIN :

Register | Disclaimer

   EN    FR    IT 

 










Legend :    VFR   Marginal VFR   IFR   Intensive IFR   Very Intensive IFR
Visi :
Ceiling :
>= 8 km
>= 3000ft
5 to 8 km
1000 to 3000 ft
1500m to 5 km
500 to 1000 ft
800 to 1500m
200 to 500 ft
< 800m
< 200 ft
Symbols :   Thunderstorms  Fog  Heavy snow  Heavy precipitations  Wind > 20 kt
SIGMETs :     Misc.  Thunderstorms  Icing  Turbulence  Mountain Waves  Volcanic Ashes







- Airport Elevation : 446 ft
- IATA code : VNE
- Download approach charts


LFRV - Vannes-Meucon

CURRENT METAR :
  • 181500Z AUTO 18005KT 150V220 CAVOK 20/11 Q1016

EXPIRED METARs :
  • 181430Z AUTO 20005KT 150V240 CAVOK 20/11 Q1016
  • 181400Z AUTO 18006KT 140V220 CAVOK 21/11 Q1016
  • 181330Z AUTO 19006KT 150V240 CAVOK 21/12 Q1016
  • 181300Z AUTO 13008KT 090V150 CAVOK 22/10 Q1016
  • 181230Z AUTO 13008KT 080V160 CAVOK 22/09 Q1016

TAF N/A
No reported NOTAMs for that airfield.



MET'MAP, your aeronautical weather chart ! - Copyright ORBIFLY December 2007 - Disclaimer

ORBIFLY MET'MAP TEAM :

Programming & Development : Alexandra Zaïnal
Concept & Development : Baudouin d'Aumeries
Co-Development & Prog : Marc-Olivier Méhu
Technical & hardware support : Manuel Goepfert

Contact : metmap@orbifly.com




SOURCES & CREDITS :

   NOAA